Time;durP1;ratioP1;P1;durP2;ratioP2;P2;SDS_P1;SDS_P2;PMS_P1;PMS_P2;Temp;Humidity;BMP_temperature;BMP_pressure;BME280_temperature;BME280_humidity;BME280_pressure;Samples;Min_cycle;Max_cycle;Signal;HPM_P1;HPM_P2
2023/04/21 00:01:58;;;;;;;22.20;15.70;;;10.20;99.90;;;;;;6092062;23;98002;-72
2023/04/21 00:04:25;;;;;;;21.48;16.58;;;10.20;99.90;;;;;;6091357;23;99334;-72
2023/04/21 00:06:52;;;;;;;20.98;15.77;;;10.10;99.90;;;;;;6091016;23;105638;-72
2023/04/21 00:09:20;;;;;;;25.15;18.88;;;10.10;99.90;;;;;;6091415;23;99112;-72
2023/04/21 00:11:47;;;;;;;19.58;15.23;;;10.10;99.90;;;;;;6091630;23;98468;-72
2023/04/21 00:14:14;;;;;;;22.02;15.68;;;9.90;99.90;;;;;;6091542;23;99060;-72
2023/04/21 00:16:41;;;;;;;20.58;14.55;;;9.90;99.90;;;;;;6065393;23;99178;-72
2023/04/21 00:19:08;;;;;;;22.38;15.48;;;9.90;99.90;;;;;;6091834;23;98561;-72
2023/04/21 00:21:35;;;;;;;23.48;16.45;;;9.90;99.90;;;;;;6091864;23;99201;-72
2023/04/21 00:24:02;;;;;;;20.20;16.65;;;9.80;99.90;;;;;;6065553;23;98588;-72
2023/04/21 00:26:29;;;;;;;20.48;15.70;;;9.80;99.90;;;;;;6091685;23;98943;-72
2023/04/21 00:28:56;;;;;;;21.15;15.27;;;9.80;99.90;;;;;;6065130;23;98476;-72
2023/04/21 00:31:23;;;;;;;17.95;11.93;;;9.80;99.90;;;;;;6065542;23;98417;-72
2023/04/21 00:33:50;;;;;;;22.88;14.77;;;9.70;99.90;;;;;;6040706;23;100098;-72
2023/04/21 00:36:20;;;;;;;17.83;12.50;;;9.70;99.90;;;;;;6091208;23;99657;-72
2023/04/21 00:38:47;;;;;;;20.42;13.40;;;9.70;99.90;;;;;;6064841;23;99178;-72
2023/04/21 00:41:14;;;;;;;14.70;12.05;;;9.60;99.90;;;;;;6065396;23;99566;-72
2023/04/21 00:44:06;;;;;;;17.52;14.35;;;9.60;99.90;;;;;;6064732;23;101867;-72
2023/04/21 00:46:34;;;;;;;23.88;14.80;;;9.70;99.90;;;;;;6091297;23;98970;-72
2023/04/21 00:49:06;;;;;;;18.88;16.00;;;9.60;99.90;;;;;;6065106;23;98445;-72
2023/04/21 00:51:35;;;;;;;20.33;15.45;;;9.60;99.90;;;;;;6041563;23;97741;-72
2023/04/21 00:54:04;;;;;;;18.88;14.43;;;9.50;99.90;;;;;;6040651;23;101682;-72
2023/04/21 00:56:34;;;;;;;20.88;14.77;;;9.60;99.90;;;;;;6091462;23;99032;-72
2023/04/21 00:59:01;;;;;;;20.25;14.30;;;9.50;99.90;;;;;;6040370;23;99158;-72
2023/04/21 01:01:29;;;;;;;20.17;13.40;;;9.50;99.90;;;;;;6089794;23;98648;-72
2023/04/21 01:03:58;;;;;;;19.95;14.65;;;9.50;99.90;;;;;;6064409;23;101507;-72
2023/04/21 01:06:33;;;;;;;18.85;13.38;;;9.50;99.90;;;;;;6065087;23;101590;-72
2023/04/21 01:09:00;;;;;;;19.88;13.32;;;9.50;99.90;;;;;;6041163;23;98487;-72
2023/04/21 01:11:27;;;;;;;19.15;13.45;;;9.50;99.90;;;;;;6091724;23;98991;-72
2023/04/21 01:13:54;;;;;;;20.70;15.07;;;9.40;99.90;;;;;;6064617;23;101702;-72
2023/04/21 01:16:23;;;;;;;17.50;14.05;;;9.40;99.90;;;;;;6065338;23;101286;-72
2023/04/21 01:18:53;;;;;;;19.13;15.38;;;9.40;99.90;;;;;;6091454;23;98475;-72
2023/04/21 01:21:20;;;;;;;21.95;14.85;;;9.40;99.90;;;;;;6065299;23;98580;-72
2023/04/21 01:23:47;;;;;;;18.02;14.35;;;9.40;99.90;;;;;;6064147;23;102502;-72
2023/04/21 01:26:20;;;;;;;23.00;13.70;;;9.40;99.90;;;;;;6064707;23;101080;-72
2023/04/21 01:28:48;;;;;;;19.00;13.45;;;9.40;99.90;;;;;;6065335;23;99033;-72
2023/04/21 01:31:16;;;;;;;18.98;13.32;;;9.40;99.90;;;;;;6065278;23;98528;-72
2023/04/21 01:33:43;;;;;;;17.42;13.98;;;9.40;99.90;;;;;;6064743;23;101756;-72
2023/04/21 01:36:11;;;;;;;19.95;13.88;;;9.40;99.90;;;;;;6064828;23;99976;-72
2023/04/21 01:38:41;;;;;;;22.23;14.82;;;9.40;99.90;;;;;;6065128;23;98450;-72
2023/04/21 01:41:09;;;;;;;19.88;15.90;;;9.40;99.90;;;;;;6065188;23;97808;-72
2023/04/21 01:43:37;;;;;;;18.67;13.65;;;9.30;99.90;;;;;;6040542;23;101710;-72
2023/04/21 01:46:05;;;;;;;19.30;15.13;;;9.40;99.90;;;;;;6090806;23;98995;-72
2023/04/21 01:48:32;;;;;;;17.80;14.85;;;9.30;99.90;;;;;;6064573;23;99713;-72
2023/04/21 01:50:59;;;;;;;17.98;13.15;;;9.30;99.90;;;;;;6091332;23;99086;-72
2023/04/21 01:53:26;;;;;;;19.17;15.20;;;9.30;99.90;;;;;;6040736;23;101766;-72
2023/04/21 01:55:53;;;;;;;17.58;13.25;;;9.20;99.90;;;;;;6064498;23;101813;-72
2023/04/21 01:58:21;;;;;;;16.02;12.50;;;9.30;99.90;;;;;;6065115;23;98435;-72
2023/04/21 02:00:47;;;;;;;18.40;14.35;;;9.30;99.90;;;;;;6041177;23;99423;-72
2023/04/21 02:03:15;;;;;;;19.10;13.82;;;9.30;99.90;;;;;;6064655;23;101813;-72
2023/04/21 02:05:44;;;;;;;19.60;13.15;;;9.20;99.90;;;;;;6064878;23;101397;-72
2023/04/21 02:08:11;;;;;;;18.85;12.48;;;9.20;99.90;;;;;;6091073;23;98445;-72
2023/04/21 02:10:40;;;;;;;16.17;12.32;;;9.20;99.90;;;;;;6064974;23;98584;-72
2023/04/21 02:13:10;;;;;;;18.30;13.45;;;9.10;99.90;;;;;;6040638;23;102350;-72
2023/04/21 02:15:37;;;;;;;16.15;12.85;;;9.20;99.90;;;;;;6040700;23;102032;-72
2023/04/21 02:18:07;;;;;;;17.55;12.57;;;9.20;99.90;;;;;;6040687;23;98590;-72
2023/04/21 02:20:34;;;;;;;17.13;13.55;;;9.20;99.90;;;;;;6040754;23;98966;-72
2023/04/21 02:23:01;;;;;;;17.15;13.15;;;9.20;99.90;;;;;;6064337;23;101968;-72
2023/04/21 02:25:28;;;;;;;20.05;12.70;;;9.20;99.90;;;;;;6065062;23;99079;-72
2023/04/21 02:27:55;;;;;;;18.60;12.07;;;9.20;99.90;;;;;;6064734;23;99007;-72
2023/04/21 02:30:25;;;;;;;17.02;11.45;;;9.20;99.90;;;;;;6042083;23;97705;-72
2023/04/21 02:32:52;;;;;;;18.33;14.13;;;9.20;99.90;;;;;;6064371;23;102173;-72
2023/04/21 02:35:20;;;;;;;18.30;14.30;;;9.10;99.90;;;;;;6064347;23;100154;-72
2023/04/21 02:37:46;;;;;;;18.88;13.90;;;9.20;99.90;;;;;;6063737;23;108805;-72
2023/04/21 02:40:14;;;;;;;17.80;12.95;;;9.10;99.90;;;;;;6090632;23;98549;-72
2023/04/21 02:42:41;;;;;;;19.13;13.40;;;9.10;99.90;;;;;;6064506;23;101834;-71
2023/04/21 02:45:09;;;;;;;17.20;11.98;;;9.00;99.90;;;;;;6090491;23;99160;-72
2023/04/21 02:47:36;;;;;;;21.98;13.50;;;9.00;99.90;;;;;;6040425;23;98611;-72
2023/04/21 02:50:03;;;;;;;19.05;13.20;;;9.00;99.90;;;;;;6040481;23;98459;-72
2023/04/21 02:52:35;;;;;;;20.10;15.13;;;9.00;99.90;;;;;;6064159;23;101795;-72
2023/04/21 02:55:03;;;;;;;20.75;14.35;;;9.00;99.90;;;;;;6064628;23;101368;-72
2023/04/21 02:57:30;;;;;;;18.05;12.40;;;9.00;99.90;;;;;;6040565;23;99020;-72
2023/04/21 02:59:59;;;;;;;19.65;14.65;;;8.90;99.90;;;;;;6065227;23;98607;-72
2023/04/21 03:02:26;;;;;;;21.00;12.73;;;8.90;99.90;;;;;;6064766;23;101210;-72
2023/04/21 03:04:53;;;;;;;19.95;14.07;;;8.90;99.90;;;;;;6091747;23;99745;-72
2023/04/21 03:07:20;;;;;;;19.63;14.30;;;8.90;99.90;;;;;;6065556;23;98554;-71
2023/04/21 03:09:47;;;;;;;20.13;14.30;;;8.90;99.90;;;;;;6065883;23;98541;-72
2023/04/21 03:12:13;;;;;;;22.20;14.82;;;8.90;99.90;;;;;;6065305;23;101744;-72
2023/04/21 03:14:41;;;;;;;18.15;14.48;;;8.90;99.90;;;;;;6041304;23;101330;-72
2023/04/21 03:17:07;;;;;;;20.42;14.05;;;8.90;99.90;;;;;;6066239;23;98774;-72
2023/04/21 03:19:34;;;;;;;18.20;12.05;;;8.90;99.90;;;;;;6066256;23;97755;-72
2023/04/21 03:22:01;;;;;;;20.48;15.13;;;8.80;99.90;;;;;;6065160;23;101673;-72
2023/04/21 03:24:28;;;;;;;17.63;14.00;;;8.90;99.90;;;;;;6041555;23;101653;-72
2023/04/21 03:26:55;;;;;;;22.45;16.13;;;8.90;99.90;;;;;;6065285;23;99231;-72
2023/04/21 03:29:23;;;;;;;22.02;14.88;;;8.90;99.90;;;;;;6065527;23;98578;-72
2023/04/21 03:31:50;;;;;;;19.73;14.75;;;8.80;99.90;;;;;;6065750;23;99216;-72
2023/04/21 03:34:18;;;;;;;17.98;14.40;;;8.70;99.90;;;;;;6065016;23;101267;-72
2023/04/21 03:36:44;;;;;;;20.58;16.75;;;8.70;99.90;;;;;;6092052;23;98505;-71
2023/04/21 03:39:12;;;;;;;21.58;14.88;;;8.70;99.90;;;;;;6065479;23;98496;-72
2023/04/21 03:41:45;;;;;;;20.83;16.73;;;8.70;99.90;;;;;;6065367;23;101485;-72
2023/04/21 03:44:11;;;;;;;20.50;14.05;;;8.70;99.90;;;;;;6065477;23;101598;-72
2023/04/21 03:46:38;;;;;;;19.85;14.07;;;8.70;99.90;;;;;;6065684;23;98435;-72
2023/04/21 03:49:05;;;;;;;18.15;15.32;;;8.70;99.90;;;;;;6091766;23;98906;-72
2023/04/21 03:51:32;;;;;;;20.67;16.80;;;8.60;99.90;;;;;;6091056;23;100136;-72
2023/04/21 03:54:00;;;;;;;17.70;13.15;;;8.70;99.90;;;;;;6065168;23;102554;-72
2023/04/21 03:56:26;;;;;;;20.73;17.10;;;8.60;99.90;;;;;;6041315;23;98548;-72
2023/04/21 03:58:53;;;;;;;18.38;15.18;;;8.60;99.90;;;;;;6092077;23;98826;-72
2023/04/21 04:01:20;;;;;;;22.52;15.40;;;8.60;99.90;;;;;;6065283;23;99127;-72
2023/04/21 04:03:47;;;;;;;20.80;14.95;;;8.70;99.90;;;;;;6091510;23;98883;-72
2023/04/21 04:06:14;;;;;;;19.00;16.10;;;8.70;99.90;;;;;;6065391;23;98479;-72
2023/04/21 04:08:41;;;;;;;19.35;15.73;;;8.60;99.90;;;;;;6065980;23;99723;-71
2023/04/21 04:11:08;;;;;;;21.15;15.95;;;8.60;99.90;;;;;;6091216;23;99303;-72
2023/04/21 04:13:35;;;;;;;21.75;13.40;;;8.60;99.90;;;;;;6091414;23;99001;-72
2023/04/21 04:16:02;;;;;;;17.67;15.50;;;8.60;99.90;;;;;;6065072;23;99287;-72
2023/04/21 04:18:29;;;;;;;19.05;15.20;;;8.70;99.90;;;;;;6041197;23;98542;-72
2023/04/21 04:20:56;;;;;;;21.38;14.75;;;8.70;99.90;;;;;;6065601;23;99252;-72
2023/04/21 04:23:23;;;;;;;20.83;15.65;;;8.70;99.90;;;;;;6091083;23;99140;-71
2023/04/21 04:25:50;;;;;;;21.25;14.85;;;8.70;99.90;;;;;;6065868;23;98463;-72
2023/04/21 04:28:17;;;;;;;19.73;13.45;;;8.70;99.90;;;;;;6065643;23;98535;-72
2023/04/21 04:30:44;;;;;;;17.65;14.80;;;8.70;99.90;;;;;;6065141;23;102127;-72
2023/04/21 04:33:11;;;;;;;22.35;15.65;;;8.70;99.90;;;;;;6041140;23;101660;-72
2023/04/21 04:35:38;;;;;;;17.20;11.23;;;8.70;99.90;;;;;;6065529;23;98580;-72
2023/04/21 04:38:06;;;;;;;17.80;14.13;;;8.70;99.90;;;;;;6065917;23;98531;-72
2023/04/21 04:40:33;;;;;;;18.92;14.43;;;8.80;99.90;;;;;;6064584;23;100648;-72
2023/04/21 04:43:01;;;;;;;19.60;14.82;;;8.80;99.90;;;;;;6091256;23;99914;-71
2023/04/21 04:45:31;;;;;;;20.08;13.38;;;8.80;99.90;;;;;;6065332;23;99003;-72
2023/04/21 04:47:59;;;;;;;22.02;14.70;;;8.80;99.90;;;;;;6091905;23;98675;-72
2023/04/21 04:50:26;;;;;;;17.02;12.82;;;8.80;99.90;;;;;;6016620;23;102110;-72
2023/04/21 04:52:53;;;;;;;19.65;12.93;;;8.90;99.90;;;;;;6041106;23;101817;-72
2023/04/21 04:55:21;;;;;;;17.25;14.05;;;8.90;99.90;;;;;;6091545;23;98886;-72
2023/04/21 04:57:48;;;;;;;19.73;14.20;;;9.00;99.90;;;;;;6042386;23;97709;-72
2023/04/21 05:00:15;;;;;;;19.60;15.70;;;9.00;99.90;;;;;;6065134;23;99305;-72
2023/04/21 05:02:42;;;;;;;15.20;11.40;;;9.10;99.90;;;;;;6040279;23;113490;-72
2023/04/21 05:05:09;;;;;;;18.40;13.60;;;9.20;99.90;;;;;;6040990;23;99777;-72
2023/04/21 05:07:36;;;;;;;18.00;12.35;;;9.30;99.90;;;;;;6040996;23;98545;-72
2023/04/21 05:10:03;;;;;;;17.00;13.35;;;9.40;99.90;;;;;;6065397;23;99238;-72
2023/04/21 05:12:33;;;;;;;19.17;12.60;;;9.50;99.90;;;;;;6090922;23;99013;-72
2023/04/21 05:15:00;;;;;;;17.77;13.25;;;9.50;99.90;;;;;;6040968;23;98468;-72
2023/04/21 05:17:29;;;;;;;13.80;10.95;;;9.50;99.90;;;;;;6065078;23;98503;-72
2023/04/21 05:19:56;;;;;;;20.95;13.35;;;9.50;99.90;;;;;;6091209;23;99212;-72
2023/04/21 05:22:23;;;;;;;15.07;11.63;;;9.80;99.90;;;;;;6091444;23;98900;-72
2023/04/21 05:24:51;;;;;;;12.18;10.95;;;10.10;99.90;;;;;;6065444;23;98444;-72
2023/04/21 05:27:18;;;;;;;12.25;9.80;;;10.50;99.90;;;;;;6041083;23;98541;-72
2023/04/21 05:29:45;;;;;;;11.13;9.55;;;10.90;99.90;;;;;;6040543;23;108622;-72
2023/04/21 05:32:12;;;;;;;13.82;9.85;;;11.30;99.90;;;;;;6091818;23;99646;-72
2023/04/21 05:34:39;;;;;;;14.95;10.38;;;11.90;99.90;;;;;;6065731;23;98574;-72
2023/04/21 05:37:06;;;;;;;12.15;9.98;;;12.30;99.90;;;;;;6017385;23;98503;-72
2023/04/21 05:39:33;;;;;;;13.00;10.23;;;12.70;99.90;;;;;;6065075;23;99723;-72
2023/04/21 05:42:01;;;;;;;15.32;10.05;;;12.90;99.90;;;;;;6064664;23;102390;-72
2023/04/21 05:44:28;;;;;;;12.65;10.13;;;12.90;99.90;;;;;;6064757;23;98512;-72
2023/04/21 05:46:55;;;;;;;12.27;9.50;;;12.80;99.90;;;;;;6066105;23;97798;-72
2023/04/21 05:49:22;;;;;;;12.82;9.82;;;12.80;99.90;;;;;;6065596;23;99397;-72
2023/04/21 05:51:48;;;;;;;15.20;10.00;;;13.00;99.90;;;;;;6065143;23;107361;-72
2023/04/21 05:54:15;;;;;;;14.75;10.70;;;13.00;99.90;;;;;;6040757;23;99245;-72
2023/04/21 05:56:42;;;;;;;12.63;10.15;;;12.80;99.90;;;;;;6065371;23;98469;-72
2023/04/21 05:59:10;;;;;;;39.13;11.10;;;12.80;99.90;;;;;;6065119;23;99310;-72
2023/04/21 06:01:37;;;;;;;12.13;9.07;;;12.80;99.90;;;;;;6064174;23;108081;-72
2023/04/21 06:04:04;;;;;;;12.45;9.75;;;13.00;99.90;;;;;;6066154;23;98466;-72
2023/04/21 06:06:31;;;;;;;13.35;10.20;;;13.40;99.90;;;;;;6065472;23;98530;-72
2023/04/21 06:08:58;;;;;;;14.40;9.23;;;13.80;99.90;;;;;;6090967;23;99225;-72
2023/04/21 06:11:25;;;;;;;13.70;9.77;;;14.20;99.90;;;;;;6091860;23;99061;-72
2023/04/21 06:13:57;;;;;;;10.32;8.98;;;14.40;99.90;;;;;;6092096;23;98360;-72
2023/04/21 06:16:24;;;;;;;13.02;9.10;;;14.40;99.90;;;;;;6065578;23;98539;-72
2023/04/21 06:18:51;;;;;;;15.60;9.30;;;14.40;99.90;;;;;;6065208;23;99875;-72
2023/04/21 06:21:18;;;;;;;12.18;8.70;;;14.40;99.90;;;;;;6065279;23;101030;-72
2023/04/21 06:23:45;;;;;;;12.10;9.20;;;14.50;99.90;;;;;;6091718;23;98764;-72
2023/04/21 06:26:12;;;;;;;12.98;9.85;;;14.80;99.90;;;;;;6091866;23;98431;-72
2023/04/21 06:28:39;;;;;;;17.25;9.98;;;15.00;99.90;;;;;;6064367;23;113609;-73
2023/04/21 06:31:08;;;;;;;10.80;8.82;;;14.80;99.90;;;;;;6064451;23;101803;-72
2023/04/21 06:33:35;;;;;;;11.95;9.43;;;14.70;99.90;;;;;;6065074;23;98577;-72
2023/04/21 06:36:02;;;;;;;14.70;10.10;;;14.70;99.90;;;;;;6065728;23;97824;-72
2023/04/21 06:38:29;;;;;;;14.77;9.90;;;14.90;99.90;;;;;;6090450;23;100144;-73
2023/04/21 06:40:56;;;;;;;12.63;9.65;;;15.00;99.90;;;;;;6065163;23;99002;-72
2023/04/21 06:43:23;;;;;;;11.00;9.30;;;15.10;99.90;;;;;;6091398;23;99116;-72
2023/04/21 06:45:50;;;;;;;12.95;9.10;;;15.00;99.90;;;;;;6065991;23;99224;-72
2023/04/21 06:48:17;;;;;;;10.80;9.68;;;15.00;99.90;;;;;;6091108;23;99309;-73
2023/04/21 06:50:45;;;;;;;11.15;9.70;;;14.80;99.90;;;;;;6064627;23;101565;-72
2023/04/21 06:53:12;;;;;;;14.70;9.65;;;14.60;99.90;;;;;;6065549;23;98983;-72
2023/04/21 06:55:39;;;;;;;16.33;9.93;;;14.70;99.90;;;;;;6089224;23;102284;-72
2023/04/21 06:58:06;;;;;;;13.60;8.93;;;14.70;99.90;;;;;;6091224;23;99414;-72
2023/04/21 07:00:33;;;;;;;12.88;8.73;;;14.50;99.90;;;;;;6065134;23;102567;-73
2023/04/21 07:03:00;;;;;;;9.85;8.27;;;14.40;99.90;;;;;;6041138;23;99091;-73
2023/04/21 07:05:27;;;;;;;15.82;9.05;;;14.40;99.90;;;;;;6091670;23;98376;-72
2023/04/21 07:07:58;;;;;;;14.05;9.68;;;14.50;99.90;;;;;;6090571;23;99876;-72
2023/04/21 07:10:26;;;;;;;13.65;8.88;;;14.70;99.90;;;;;;6090923;23;99776;-73
2023/04/21 07:12:54;;;;;;;12.57;9.38;;;15.00;99.90;;;;;;6065616;23;98978;-72
2023/04/21 07:15:21;;;;;;;11.35;8.55;;;15.10;99.90;;;;;;6065782;23;98599;-72
2023/04/21 07:17:48;;;;;;;11.65;8.05;;;15.30;99.90;;;;;;6090728;23;99671;-73
2023/04/21 07:20:17;;;;;;;11.07;8.50;;;15.60;99.90;;;;;;6064815;23;101559;-72
2023/04/21 07:22:44;;;;;;;11.90;8.85;;;15.80;99.90;;;;;;6090583;23;101231;-73
2023/04/21 07:25:11;;;;;;;12.45;8.65;;;16.00;99.90;;;;;;6091791;23;97703;-72
2023/04/21 07:27:38;;;;;;;11.88;8.77;;;15.90;99.90;;;;;;6064356;23;102097;-73
2023/04/21 07:30:06;;;;;;;10.70;9.60;;;15.80;99.90;;;;;;6064988;23;98919;-73
2023/04/21 07:32:33;;;;;;;11.68;9.15;;;16.00;99.90;;;;;;6090684;23;99104;-73
2023/04/21 07:35:01;;;;;;;14.57;9.13;;;16.00;99.90;;;;;;6091272;23;98515;-72
2023/04/21 07:37:28;;;;;;;9.50;8.35;;;16.10;99.90;;;;;;6065012;23;99800;-72
2023/04/21 07:39:55;;;;;;;11.10;8.88;;;15.80;99.90;;;;;;6088332;23;98996;-72
2023/04/21 07:42:23;;;;;;;11.93;8.60;;;16.00;99.90;;;;;;6065269;23;99078;-73
2023/04/21 07:44:50;;;;;;;10.68;9.63;;;15.90;99.90;;;;;;6090850;23;98483;-72
2023/04/21 07:47:17;;;;;;;11.05;8.85;;;16.00;99.90;;;;;;6040646;23;101814;-73
2023/04/21 07:49:44;;;;;;;11.20;8.82;;;16.10;99.90;;;;;;6065312;23;115845;-73
2023/04/21 07:52:11;;;;;;;11.52;8.63;;;16.20;99.90;;;;;;6042243;23;98513;-73
2023/04/21 07:54:38;;;;;;;17.05;8.70;;;16.70;99.90;;;;;;6092297;23;98477;-73
2023/04/21 07:57:06;;;;;;;13.70;9.07;;;17.10;99.80;;;;;;6091614;23;99880;-73
2023/04/21 07:59:33;;;;;;;11.02;8.18;;;17.70;99.50;;;;;;6066408;23;99997;-73
2023/04/21 08:02:00;;;;;;;9.38;8.48;;;18.40;98.70;;;;;;6066722;23;98537;-73
2023/04/21 08:04:27;;;;;;;10.52;8.55;;;18.90;97.90;;;;;;6066644;23;98471;-73
2023/04/21 08:06:54;;;;;;;10.30;8.68;;;19.50;96.90;;;;;;6091942;23;99860;-73
2023/04/21 08:09:21;;;;;;;10.93;8.60;;;20.00;96.50;;;;;;6092003;23;99036;-73
2023/04/21 08:11:49;;;;;;;13.77;8.05;;;20.60;95.90;;;;;;6092205;23;98541;-73
2023/04/21 08:14:16;;;;;;;11.10;8.18;;;21.10;94.70;;;;;;6093008;23;97764;-73
2023/04/21 08:16:43;;;;;;;11.10;8.65;;;21.90;93.80;;;;;;6066057;23;101506;-74
2023/04/21 08:19:10;;;;;;;10.52;8.48;;;22.30;92.70;;;;;;6092039;23;99108;-73
2023/04/21 08:21:39;;;;;;;11.43;8.88;;;22.40;91.40;;;;;;6065867;23;99293;-73
2023/04/21 08:24:06;;;;;;;11.57;8.25;;;22.70;90.70;;;;;;6066660;23;98577;-73
2023/04/21 08:26:34;;;;;;;12.70;8.35;;;22.80;90.50;;;;;;6092058;23;99206;-73
2023/04/21 08:29:01;;;;;;;11.10;8.90;;;23.00;89.10;;;;;;6091696;23;99381;-73
2023/04/21 08:31:30;;;;;;;11.80;8.27;;;22.70;88.90;;;;;;6092526;23;98561;-73
2023/04/21 08:33:57;;;;;;;12.23;8.57;;;22.40;89.00;;;;;;6041768;23;98484;-74
2023/04/21 08:36:28;;;;;;;12.35;8.70;;;22.10;89.40;;;;;;6065802;23;101718;-74
2023/04/21 08:38:56;;;;;;;11.15;9.10;;;21.80;89.30;;;;;;6092121;23;98843;-73
2023/04/21 08:41:24;;;;;;;11.13;7.93;;;21.50;89.60;;;;;;6090601;23;98546;-73
2023/04/21 08:43:51;;;;;;;10.95;8.80;;;21.50;90.10;;;;;;6092076;23;98485;-73
2023/04/21 08:46:19;;;;;;;13.98;9.27;;;21.30;90.00;;;;;;6064767;23;102617;-73
2023/04/21 08:48:46;;;;;;;11.23;8.60;;;21.30;90.00;;;;;;6065859;23;99942;-73
2023/04/21 08:51:20;;;;;;;13.38;8.90;;;21.30;90.20;;;;;;6065805;23;100544;-73
2023/04/21 08:53:47;;;;;;;10.48;8.95;;;21.20;90.10;;;;;;6092236;23;98445;-73
2023/04/21 08:56:14;;;;;;;10.10;8.63;;;20.80;90.10;;;;;;6091987;23;99959;-73
2023/04/21 08:58:41;;;;;;;12.60;7.63;;;20.10;90.80;;;;;;6089580;23;103938;-73
2023/04/21 09:01:08;;;;;;;12.95;9.55;;;19.70;91.30;;;;;;6066172;23;98484;-73
2023/04/21 09:03:35;;;;;;;14.70;9.30;;;19.40;91.80;;;;;;6042271;23;97812;-73
2023/04/21 09:06:05;;;;;;;12.70;8.35;;;19.00;92.30;;;;;;6065564;23;100564;-73
2023/04/21 09:08:35;;;;;;;10.98;8.65;;;18.70;92.90;;;;;;6065386;23;100190;-73
2023/04/21 09:11:03;;;;;;;13.43;8.88;;;18.50;93.40;;;;;;6065826;23;99244;-73
2023/04/21 09:13:35;;;;;;;9.70;8.35;;;18.30;93.90;;;;;;6092324;23;98931;-73
2023/04/21 09:16:17;;;;;;;12.50;8.43;;;18.30;94.30;;;;;;6091640;23;99154;-73
2023/04/21 09:18:44;;;;;;;10.30;8.10;;;18.20;94.60;;;;;;6091835;23;99045;-73
2023/04/21 09:21:14;;;;;;;11.45;8.10;;;18.20;94.80;;;;;;6066615;23;98421;-73
2023/04/21 09:23:51;;;;;;;14.55;9.18;;;18.20;94.70;;;;;;6092207;23;98473;-73
2023/04/21 09:26:21;;;;;;;9.90;8.02;;;18.10;94.60;;;;;;6091817;23;99261;-73
2023/04/21 09:28:50;;;;;;;14.20;8.52;;;18.00;94.80;;;;;;6065290;23;101659;-73
2023/04/21 09:31:18;;;;;;;14.20;9.20;;;18.10;94.90;;;;;;6092317;23;98458;-73
2023/04/21 09:33:51;;;;;;;12.55;8.90;;;18.10;95.10;;;;;;6092190;23;98456;-73
2023/04/21 09:36:23;;;;;;;14.25;8.65;;;18.20;95.00;;;;;;6091357;23;100101;-73
2023/04/21 09:38:53;;;;;;;12.07;9.15;;;18.10;94.90;;;;;;6091443;23;99867;-73
2023/04/21 09:41:38;;;;;;;14.48;9.00;;;18.30;95.10;;;;;;6045317;23;98671;-73
2023/04/21 09:44:05;;;;;;;8.75;7.85;;;18.30;94.80;;;;;;6066100;23;98489;-73
2023/04/21 09:46:34;;;;;;;10.38;8.52;;;18.40;94.60;;;;;;6091703;23;99255;-73
2023/04/21 09:49:03;;;;;;;16.65;9.18;;;18.60;94.70;;;;;;6040655;23;100808;-73
2023/04/21 09:51:31;;;;;;;18.70;8.93;;;18.60;94.10;;;;;;6041959;23;98581;-73
2023/04/21 09:54:15;;;;;;;14.77;8.95;;;18.60;94.00;;;;;;6067033;23;97785;-73
2023/04/21 09:56:49;;;;;;;13.40;8.50;;;18.50;94.40;;;;;;6091725;23;98996;-73
2023/04/21 09:59:19;;;;;;;15.55;8.52;;;18.60;94.50;;;;;;6065789;23;99064;-73
2023/04/21 10:01:50;;;;;;;10.85;8.35;;;18.80;94.30;;;;;;6091775;23;99226;-73
2023/04/21 10:04:18;;;;;;;14.00;9.35;;;18.80;94.20;;;;;;6091675;23;98440;-73
2023/04/21 10:06:47;;;;;;;14.70;8.50;;;18.90;93.70;;;;;;6091609;23;99299;-73
2023/04/21 10:09:20;;;;;;;11.93;8.25;;;19.00;93.20;;;;;;6064661;23;101811;-73
2023/04/21 10:11:47;;;;;;;11.23;8.77;;;19.10;93.00;;;;;;6092063;23;98553;-73
2023/04/21 10:14:14;;;;;;;10.60;8.75;;;19.10;92.70;;;;;;6041771;23;98631;-73
2023/04/21 10:16:41;;;;;;;12.48;8.13;;;18.90;92.50;;;;;;6065571;23;104764;-73
2023/04/21 10:19:26;;;;;;;9.55;8.48;;;19.10;93.00;;;;;;6041900;23;99005;-73
2023/04/21 10:21:59;;;;;;;11.98;8.10;;;19.20;92.60;;;;;;6092031;23;98397;-73
2023/04/21 10:24:29;;;;;;;13.03;7.77;;;19.20;92.80;;;;;;6091938;23;98467;-73
2023/04/21 10:27:00;;;;;;;12.07;8.10;;;19.10;92.60;;;;;;6090701;23;99908;-73
2023/04/21 10:29:32;;;;;;;12.02;8.30;;;19.20;92.90;;;;;;6041004;23;102229;-73
2023/04/21 10:32:32;;;;;;;12.95;8.02;;;19.20;92.90;;;;;;6065699;23;98531;-73
2023/04/21 10:34:59;;;;;;;10.27;7.78;;;19.40;92.70;;;;;;6091654;23;98506;-73
2023/04/21 10:37:30;;;;;;;8.40;7.38;;;19.40;91.90;;;;;;6041084;23;102104;-73
2023/04/21 10:39:57;;;;;;;12.30;7.82;;;19.50;91.70;;;;;;6065459;23;98822;-73
2023/04/21 10:42:26;;;;;;;14.32;8.02;;;19.40;91.80;;;;;;6091733;23;98360;-72
2023/04/21 10:45:01;;;;;;;12.68;8.20;;;19.50;92.10;;;;;;6066381;23;97776;-73
2023/04/21 10:47:40;;;;;;;10.95;7.18;;;19.50;91.60;;;;;;6091361;23;99276;-73
2023/04/21 10:50:14;;;;;;;13.95;7.80;;;19.50;91.40;;;;;;6091010;23;99125;-73
2023/04/21 10:52:45;;;;;;;11.55;7.40;;;19.60;91.80;;;;;;6065372;23;99847;-73
2023/04/21 10:55:14;;;;;;;9.70;7.28;;;19.60;91.40;;;;;;6091517;23;98697;-73
2023/04/21 10:57:44;;;;;;;8.02;6.75;;;19.70;90.70;;;;;;6091143;23;100091;-73
2023/04/21 11:00:15;;;;;;;12.25;6.63;;;19.70;90.50;;;;;;6065079;23;99079;-73
2023/04/21 11:02:42;;;;;;;11.02;6.90;;;19.80;90.60;;;;;;6065898;23;98471;-73
2023/04/21 11:05:11;;;;;;;9.40;6.20;;;19.90;90.50;;;;;;6091358;23;98413;-73
2023/04/21 11:07:38;;;;;;;13.13;6.07;;;20.00;90.80;;;;;;6064886;23;105669;-73
2023/04/21 11:10:10;;;;;;;7.70;6.10;;;20.00;90.60;;;;;;6091199;23;99148;-73
2023/04/21 11:12:39;;;;;;;9.63;5.05;;;20.20;90.30;;;;;;6091826;23;98983;-73
2023/04/21 11:15:08;;;;;;;9.18;5.25;;;20.30;89.00;;;;;;6091198;23;98558;-73
2023/04/21 11:17:38;;;;;;;7.07;5.60;;;20.40;89.20;;;;;;6064580;23;102977;-73
2023/04/21 11:20:06;;;;;;;7.80;5.47;;;20.60;88.20;;;;;;6090760;23;99739;-73
2023/04/21 11:22:35;;;;;;;5.78;4.53;;;20.70;86.70;;;;;;6091917;23;98455;-73
2023/04/21 11:25:02;;;;;;;9.15;5.05;;;20.70;85.30;;;;;;6092496;23;98508;-73
2023/04/21 11:27:29;;;;;;;11.18;5.43;;;20.70;83.90;;;;;;6066564;23;99352;-73
2023/04/21 11:29:57;;;;;;;8.10;4.88;;;20.70;84.20;;;;;;6092193;23;99040;-73
2023/04/21 11:32:24;;;;;;;4.72;4.20;;;20.50;82.60;;;;;;6041995;23;98460;-73
2023/04/21 11:34:51;;;;;;;7.88;5.35;;;20.40;83.20;;;;;;6019391;23;97853;-73
2023/04/21 11:37:27;;;;;;;8.13;4.93;;;20.40;84.10;;;;;;6091853;23;100096;-73
2023/04/21 11:39:58;;;;;;;9.68;4.97;;;20.50;84.00;;;;;;6092231;23;98928;-73
2023/04/21 11:42:26;;;;;;;7.78;4.82;;;20.60;85.20;;;;;;6091905;23;99191;-73
2023/04/21 11:44:55;;;;;;;6.43;4.82;;;20.60;83.90;;;;;;6066494;23;98605;-73
2023/04/21 11:47:25;;;;;;;6.82;4.80;;;20.60;82.70;;;;;;6041214;23;102221;-73
2023/04/21 11:49:55;;;;;;;7.53;5.18;;;20.70;83.40;;;;;;6066284;23;98885;-73
2023/04/21 11:52:22;;;;;;;8.93;5.60;;;20.70;82.80;;;;;;6065876;23;98517;-73
2023/04/21 11:54:59;;;;;;;9.32;5.18;;;20.70;82.50;;;;;;6092688;23;98466;-73
2023/04/21 11:57:31;;;;;;;9.45;5.10;;;20.80;83.40;;;;;;6041751;23;101757;-73
2023/04/21 11:59:59;;;;;;;11.18;5.22;;;20.70;83.20;;;;;;6067144;23;98922;-73
2023/04/21 12:02:29;;;;;;;10.68;5.10;;;20.80;83.30;;;;;;6066003;23;98519;-72
2023/04/21 12:05:07;;;;;;;15.20;5.60;;;20.80;82.00;;;;;;6065830;23;98706;-73
2023/04/21 12:07:46;;;;;;;8.75;5.72;;;20.90;82.20;;;;;;6065562;23;102499;-73
2023/04/21 12:10:17;;;;;;;9.30;5.50;;;20.70;81.50;;;;;;6066096;23;99775;-73
2023/04/21 12:12:44;;;;;;;5.78;4.80;;;20.70;82.00;;;;;;6092588;23;98465;-73
2023/04/21 12:15:20;;;;;;;11.52;5.38;;;20.60;82.20;;;;;;6091825;23;99392;-72
2023/04/21 12:17:49;;;;;;;7.93;5.32;;;20.70;81.80;;;;;;6092197;23;99191;-73
2023/04/21 12:20:21;;;;;;;11.13;5.15;;;20.70;81.40;;;;;;6091779;23;99499;-73
2023/04/21 12:22:48;;;;;;;8.77;5.25;;;20.80;82.10;;;;;;6092622;23;98439;-73
2023/04/21 12:25:16;;;;;;;11.55;5.15;;;20.80;81.80;;;;;;6065761;23;103385;-73
2023/04/21 12:27:56;;;;;;;6.40;4.72;;;20.80;80.70;;;;;;6041534;23;101927;-73
2023/04/21 12:30:23;;;;;;;16.05;5.10;;;21.20;81.30;;;;;;6065362;23;104763;-73
2023/04/21 12:32:51;;;;;;;5.88;4.07;;;21.20;80.20;;;;;;6066146;23;99241;-73
2023/04/21 12:35:18;;;;;;;8.65;4.00;;;21.30;76.00;;;;;;6091688;23;98448;-73
2023/04/21 12:37:45;;;;;;;7.50;3.97;;;21.40;74.90;;;;;;6091886;23;102566;-73
2023/04/21 12:40:12;;;;;;;7.18;4.00;;;21.60;73.30;;;;;;6091391;23;99143;-73
2023/04/21 12:42:39;;;;;;;12.00;3.47;;;21.70;72.00;;;;;;6066305;23;99021;-73